sensor_id;sensor_type;location;lat;lon;timestamp;P1;durP1;ratioP1;P2;durP2;ratioP2
40729;SDS011;26418;50.070;8.436;2023-05-10T00:02:06;2.40;;;0.82;;
40729;SDS011;26418;50.070;8.436;2023-05-10T00:04:32;0.93;;;0.55;;
40729;SDS011;26418;50.070;8.436;2023-05-10T00:06:57;1.55;;;0.60;;
40729;SDS011;26418;50.070;8.436;2023-05-10T00:09:23;1.63;;;0.52;;
40729;SDS011;26418;50.070;8.436;2023-05-10T00:11:48;1.27;;;0.60;;
40729;SDS011;26418;50.070;8.436;2023-05-10T00:14:13;3.58;;;0.98;;
40729;SDS011;26418;50.070;8.436;2023-05-10T00:16:38;0.77;;;0.57;;
40729;SDS011;26418;50.070;8.436;2023-05-10T00:19:04;4.75;;;0.80;;
40729;SDS011;26418;50.070;8.436;2023-05-10T00:21:29;2.10;;;0.70;;
40729;SDS011;26418;50.070;8.436;2023-05-10T00:23:54;1.10;;;0.60;;
40729;SDS011;26418;50.070;8.436;2023-05-10T00:26:20;2.92;;;0.60;;
40729;SDS011;26418;50.070;8.436;2023-05-10T00:28:46;1.27;;;0.60;;
40729;SDS011;26418;50.070;8.436;2023-05-10T00:31:11;1.58;;;0.88;;
40729;SDS011;26418;50.070;8.436;2023-05-10T00:33:36;3.53;;;0.98;;
40729;SDS011;26418;50.070;8.436;2023-05-10T00:36:02;3.08;;;0.90;;
40729;SDS011;26418;50.070;8.436;2023-05-10T00:38:27;1.92;;;0.40;;
40729;SDS011;26418;50.070;8.436;2023-05-10T00:40:53;2.75;;;0.68;;
40729;SDS011;26418;50.070;8.436;2023-05-10T00:43:18;2.25;;;0.70;;
40729;SDS011;26418;50.070;8.436;2023-05-10T00:45:43;1.95;;;0.80;;
40729;SDS011;26418;50.070;8.436;2023-05-10T00:48:09;1.67;;;0.80;;
40729;SDS011;26418;50.070;8.436;2023-05-10T00:50:35;3.35;;;0.90;;
40729;SDS011;26418;50.070;8.436;2023-05-10T00:53:00;1.50;;;0.80;;
40729;SDS011;26418;50.070;8.436;2023-05-10T00:55:26;1.85;;;1.08;;
40729;SDS011;26418;50.070;8.436;2023-05-10T00:57:52;1.80;;;0.90;;
40729;SDS011;26418;50.070;8.436;2023-05-10T01:00:18;1.23;;;0.63;;
40729;SDS011;26418;50.070;8.436;2023-05-10T01:02:45;4.32;;;0.60;;
40729;SDS011;26418;50.070;8.436;2023-05-10T01:05:11;3.13;;;0.75;;
40729;SDS011;26418;50.070;8.436;2023-05-10T01:07:37;1.40;;;0.60;;
40729;SDS011;26418;50.070;8.436;2023-05-10T01:10:04;1.20;;;0.63;;
40729;SDS011;26418;50.070;8.436;2023-05-10T01:12:34;2.22;;;0.55;;
40729;SDS011;26418;50.070;8.436;2023-05-10T01:15:02;0.70;;;0.32;;
40729;SDS011;26418;50.070;8.436;2023-05-10T01:17:28;0.60;;;0.50;;
40729;SDS011;26418;50.070;8.436;2023-05-10T01:19:54;0.93;;;0.30;;
40729;SDS011;26418;50.070;8.436;2023-05-10T01:27:36;0.32;;;0.20;;
40729;SDS011;26418;50.070;8.436;2023-05-10T01:30:18;0.95;;;0.40;;
40729;SDS011;26418;50.070;8.436;2023-05-10T01:40:57;0.95;;;0.25;;
40729;SDS011;26418;50.070;8.436;2023-05-10T01:46:33;0.95;;;0.40;;
40729;SDS011;26418;50.070;8.436;2023-05-10T01:49:02;0.32;;;0.30;;
40729;SDS011;26418;50.070;8.436;2023-05-10T01:51:35;1.42;;;0.40;;
40729;SDS011;26418;50.070;8.436;2023-05-10T01:54:06;0.22;;;0.20;;
40729;SDS011;26418;50.070;8.436;2023-05-10T01:56:34;1.13;;;0.50;;
40729;SDS011;26418;50.070;8.436;2023-05-10T01:59:04;0.45;;;0.28;;
40729;SDS011;26418;50.070;8.436;2023-05-10T02:01:33;0.57;;;0.40;;
40729;SDS011;26418;50.070;8.436;2023-05-10T02:04:01;0.80;;;0.40;;
40729;SDS011;26418;50.070;8.436;2023-05-10T02:06:27;0.80;;;0.40;;
40729;SDS011;26418;50.070;8.436;2023-05-10T02:08:53;3.10;;;0.47;;
40729;SDS011;26418;50.070;8.436;2023-05-10T02:11:19;1.65;;;0.45;;
40729;SDS011;26418;50.070;8.436;2023-05-10T02:13:45;1.00;;;0.60;;
40729;SDS011;26418;50.070;8.436;2023-05-10T02:16:14;0.57;;;0.40;;
40729;SDS011;26418;50.070;8.436;2023-05-10T02:18:41;0.52;;;0.40;;
40729;SDS011;26418;50.070;8.436;2023-05-10T02:21:08;0.60;;;0.55;;
40729;SDS011;26418;50.070;8.436;2023-05-10T02:23:35;0.90;;;0.77;;
40729;SDS011;26418;50.070;8.436;2023-05-10T02:26:01;0.98;;;0.80;;
40729;SDS011;26418;50.070;8.436;2023-05-10T02:28:28;1.70;;;0.80;;
40729;SDS011;26418;50.070;8.436;2023-05-10T02:30:55;1.02;;;0.70;;
40729;SDS011;26418;50.070;8.436;2023-05-10T02:33:21;0.70;;;0.40;;
40729;SDS011;26418;50.070;8.436;2023-05-10T02:35:47;1.33;;;0.57;;
40729;SDS011;26418;50.070;8.436;2023-05-10T02:38:15;0.70;;;0.60;;
40729;SDS011;26418;50.070;8.436;2023-05-10T02:40:41;0.50;;;0.40;;
40729;SDS011;26418;50.070;8.436;2023-05-10T02:43:09;0.47;;;0.40;;
40729;SDS011;26418;50.070;8.436;2023-05-10T02:45:38;1.75;;;0.30;;
40729;SDS011;26418;50.070;8.436;2023-05-10T02:48:05;0.50;;;0.35;;
40729;SDS011;26418;50.070;8.436;2023-05-10T02:50:31;0.30;;;0.30;;
40729;SDS011;26418;50.070;8.436;2023-05-10T02:53:02;0.50;;;0.30;;
40729;SDS011;26418;50.070;8.436;2023-05-10T02:55:35;1.02;;;0.35;;
40729;SDS011;26418;50.070;8.436;2023-05-10T02:58:03;0.20;;;0.20;;
40729;SDS011;26418;50.070;8.436;2023-05-10T03:00:29;0.55;;;0.30;;
40729;SDS011;26418;50.070;8.436;2023-05-10T03:02:54;0.50;;;0.28;;
40729;SDS011;26418;50.070;8.436;2023-05-10T03:05:20;0.47;;;0.35;;
40729;SDS011;26418;50.070;8.436;2023-05-10T03:07:49;0.20;;;0.20;;
40729;SDS011;26418;50.070;8.436;2023-05-10T03:10:16;0.30;;;0.20;;
40729;SDS011;26418;50.070;8.436;2023-05-10T03:13:44;1.90;;;0.30;;
40729;SDS011;26418;50.070;8.436;2023-05-10T03:16:00;0.30;;;0.30;;
40729;SDS011;26418;50.070;8.436;2023-05-10T03:18:44;0.30;;;0.25;;
40729;SDS011;26418;50.070;8.436;2023-05-10T03:21:16;1.23;;;0.60;;
40729;SDS011;26418;50.070;8.436;2023-05-10T03:26:16;1.33;;;0.40;;
40729;SDS011;26418;50.070;8.436;2023-05-10T03:28:45;2.78;;;0.45;;
40729;SDS011;26418;50.070;8.436;2023-05-10T03:31:13;2.70;;;0.65;;
40729;SDS011;26418;50.070;8.436;2023-05-10T03:33:45;0.32;;;0.30;;
40729;SDS011;26418;50.070;8.436;2023-05-10T03:36:12;1.45;;;0.50;;
40729;SDS011;26418;50.070;8.436;2023-05-10T03:38:37;2.17;;;0.40;;
40729;SDS011;26418;50.070;8.436;2023-05-10T03:41:02;0.73;;;0.40;;
40729;SDS011;26418;50.070;8.436;2023-05-10T03:43:28;0.40;;;0.32;;
40729;SDS011;26418;50.070;8.436;2023-05-10T03:45:53;0.60;;;0.40;;
40729;SDS011;26418;50.070;8.436;2023-05-10T03:48:18;0.30;;;0.30;;
40729;SDS011;26418;50.070;8.436;2023-05-10T03:50:44;0.50;;;0.40;;
40729;SDS011;26418;50.070;8.436;2023-05-10T03:53:09;0.50;;;0.50;;
40729;SDS011;26418;50.070;8.436;2023-05-10T03:55:34;0.90;;;0.70;;
40729;SDS011;26418;50.070;8.436;2023-05-10T03:58:01;8.85;;;1.15;;
40729;SDS011;26418;50.070;8.436;2023-05-10T04:00:26;2.35;;;0.70;;
40729;SDS011;26418;50.070;8.436;2023-05-10T04:02:52;0.90;;;0.50;;
40729;SDS011;26418;50.070;8.436;2023-05-10T04:05:17;1.15;;;0.70;;
40729;SDS011;26418;50.070;8.436;2023-05-10T04:07:42;1.50;;;0.75;;
40729;SDS011;26418;50.070;8.436;2023-05-10T04:10:09;1.15;;;0.90;;
40729;SDS011;26418;50.070;8.436;2023-05-10T04:12:34;0.90;;;0.73;;
40729;SDS011;26418;50.070;8.436;2023-05-10T04:15:00;3.25;;;1.05;;
40729;SDS011;26418;50.070;8.436;2023-05-10T04:17:26;2.55;;;0.95;;
40729;SDS011;26418;50.070;8.436;2023-05-10T04:19:51;2.17;;;1.20;;
40729;SDS011;26418;50.070;8.436;2023-05-10T04:22:19;2.92;;;1.20;;
40729;SDS011;26418;50.070;8.436;2023-05-10T04:24:45;2.00;;;1.35;;
40729;SDS011;26418;50.070;8.436;2023-05-10T04:27:10;4.57;;;1.75;;
40729;SDS011;26418;50.070;8.436;2023-05-10T04:29:36;1.20;;;1.10;;
40729;SDS011;26418;50.070;8.436;2023-05-10T04:32:01;1.75;;;1.25;;
40729;SDS011;26418;50.070;8.436;2023-05-10T04:34:27;6.82;;;1.75;;
40729;SDS011;26418;50.070;8.436;2023-05-10T04:36:52;1.45;;;1.15;;
40729;SDS011;26418;50.070;8.436;2023-05-10T04:39:17;1.20;;;1.08;;
40729;SDS011;26418;50.070;8.436;2023-05-10T04:41:43;9.88;;;3.05;;
40729;SDS011;26418;50.070;8.436;2023-05-10T04:44:08;7.95;;;2.60;;
40729;SDS011;26418;50.070;8.436;2023-05-10T04:46:33;6.38;;;2.47;;
40729;SDS011;26418;50.070;8.436;2023-05-10T04:48:59;2.88;;;1.80;;
40729;SDS011;26418;50.070;8.436;2023-05-10T04:51:24;9.18;;;2.25;;
40729;SDS011;26418;50.070;8.436;2023-05-10T04:53:49;6.65;;;2.35;;
40729;SDS011;26418;50.070;8.436;2023-05-10T04:56:15;9.57;;;1.73;;
40729;SDS011;26418;50.070;8.436;2023-05-10T04:58:41;6.70;;;2.40;;
40729;SDS011;26418;50.070;8.436;2023-05-10T05:01:07;3.58;;;2.00;;
40729;SDS011;26418;50.070;8.436;2023-05-10T05:03:34;5.38;;;1.83;;
40729;SDS011;26418;50.070;8.436;2023-05-10T05:05:59;3.30;;;1.73;;
40729;SDS011;26418;50.070;8.436;2023-05-10T05:08:25;2.88;;;1.80;;
40729;SDS011;26418;50.070;8.436;2023-05-10T05:10:50;5.00;;;1.83;;
40729;SDS011;26418;50.070;8.436;2023-05-10T05:13:16;2.60;;;2.00;;
40729;SDS011;26418;50.070;8.436;2023-05-10T05:15:41;5.38;;;2.13;;
40729;SDS011;26418;50.070;8.436;2023-05-10T05:18:06;4.28;;;1.98;;
40729;SDS011;26418;50.070;8.436;2023-05-10T05:20:32;4.50;;;2.15;;
40729;SDS011;26418;50.070;8.436;2023-05-10T05:22:59;3.50;;;2.00;;
40729;SDS011;26418;50.070;8.436;2023-05-10T05:25:24;5.72;;;2.28;;
40729;SDS011;26418;50.070;8.436;2023-05-10T05:27:49;2.20;;;1.73;;
40729;SDS011;26418;50.070;8.436;2023-05-10T05:30:15;1.75;;;1.48;;
40729;SDS011;26418;50.070;8.436;2023-05-10T05:32:40;2.55;;;1.33;;
40729;SDS011;26418;50.070;8.436;2023-05-10T05:35:05;5.30;;;1.95;;
40729;SDS011;26418;50.070;8.436;2023-05-10T05:37:31;3.28;;;1.73;;
40729;SDS011;26418;50.070;8.436;2023-05-10T05:39:57;2.28;;;1.73;;
40729;SDS011;26418;50.070;8.436;2023-05-10T05:42:22;3.60;;;2.30;;
40729;SDS011;26418;50.070;8.436;2023-05-10T05:44:47;6.95;;;2.00;;
40729;SDS011;26418;50.070;8.436;2023-05-10T05:47:13;3.75;;;2.00;;
40729;SDS011;26418;50.070;8.436;2023-05-10T05:49:38;4.15;;;2.47;;
40729;SDS011;26418;50.070;8.436;2023-05-10T05:52:04;6.10;;;2.38;;
40729;SDS011;26418;50.070;8.436;2023-05-10T05:54:29;3.13;;;2.28;;
40729;SDS011;26418;50.070;8.436;2023-05-10T05:56:59;2.55;;;1.98;;
40729;SDS011;26418;50.070;8.436;2023-05-10T05:59:25;4.47;;;2.55;;
40729;SDS011;26418;50.070;8.436;2023-05-10T06:01:51;2.20;;;1.92;;
40729;SDS011;26418;50.070;8.436;2023-05-10T06:04:17;4.82;;;3.13;;
40729;SDS011;26418;50.070;8.436;2023-05-10T06:06:43;4.70;;;3.28;;
40729;SDS011;26418;50.070;8.436;2023-05-10T06:09:08;5.25;;;2.40;;
40729;SDS011;26418;50.070;8.436;2023-05-10T06:11:34;3.08;;;2.40;;
40729;SDS011;26418;50.070;8.436;2023-05-10T06:14:00;7.70;;;3.33;;
40729;SDS011;26418;50.070;8.436;2023-05-10T06:16:26;3.67;;;3.03;;
40729;SDS011;26418;50.070;8.436;2023-05-10T06:18:51;4.82;;;3.17;;
40729;SDS011;26418;50.070;8.436;2023-05-10T06:21:16;8.10;;;3.38;;
40729;SDS011;26418;50.070;8.436;2023-05-10T06:23:42;4.05;;;2.45;;
40729;SDS011;26418;50.070;8.436;2023-05-10T06:26:07;6.55;;;2.75;;
40729;SDS011;26418;50.070;8.436;2023-05-10T06:28:33;4.55;;;3.30;;
40729;SDS011;26418;50.070;8.436;2023-05-10T06:30:58;5.60;;;2.97;;
40729;SDS011;26418;50.070;8.436;2023-05-10T06:33:24;7.10;;;2.75;;
40729;SDS011;26418;50.070;8.436;2023-05-10T06:35:49;6.72;;;2.72;;
40729;SDS011;26418;50.070;8.436;2023-05-10T06:38:14;5.32;;;3.22;;
40729;SDS011;26418;50.070;8.436;2023-05-10T06:40:43;4.60;;;2.42;;
40729;SDS011;26418;50.070;8.436;2023-05-10T06:43:09;2.75;;;2.05;;
40729;SDS011;26418;50.070;8.436;2023-05-10T06:45:34;4.85;;;2.45;;
40729;SDS011;26418;50.070;8.436;2023-05-10T06:48:00;4.75;;;2.55;;
40729;SDS011;26418;50.070;8.436;2023-05-10T06:50:25;9.32;;;3.10;;
40729;SDS011;26418;50.070;8.436;2023-05-10T06:52:51;6.80;;;2.72;;
40729;SDS011;26418;50.070;8.436;2023-05-10T06:55:16;5.15;;;3.20;;
40729;SDS011;26418;50.070;8.436;2023-05-10T06:57:42;2.40;;;2.08;;
40729;SDS011;26418;50.070;8.436;2023-05-10T07:00:07;4.78;;;2.60;;
40729;SDS011;26418;50.070;8.436;2023-05-10T07:02:34;3.08;;;2.22;;
40729;SDS011;26418;50.070;8.436;2023-05-10T07:05:00;2.83;;;1.88;;
40729;SDS011;26418;50.070;8.436;2023-05-10T07:07:25;3.88;;;1.90;;
40729;SDS011;26418;50.070;8.436;2023-05-10T07:09:50;3.47;;;1.85;;
40729;SDS011;26418;50.070;8.436;2023-05-10T07:12:16;2.38;;;1.80;;
40729;SDS011;26418;50.070;8.436;2023-05-10T07:14:41;4.80;;;1.92;;
40729;SDS011;26418;50.070;8.436;2023-05-10T07:17:07;2.65;;;1.92;;
40729;SDS011;26418;50.070;8.436;2023-05-10T07:19:32;6.25;;;2.38;;
40729;SDS011;26418;50.070;8.436;2023-05-10T07:21:58;2.33;;;1.45;;
40729;SDS011;26418;50.070;8.436;2023-05-10T07:24:23;6.63;;;1.98;;
40729;SDS011;26418;50.070;8.436;2023-05-10T07:26:49;4.28;;;1.63;;
40729;SDS011;26418;50.070;8.436;2023-05-10T07:29:14;2.60;;;1.73;;
40729;SDS011;26418;50.070;8.436;2023-05-10T07:31:40;4.40;;;1.65;;
40729;SDS011;26418;50.070;8.436;2023-05-10T07:34:07;1.60;;;1.13;;
40729;SDS011;26418;50.070;8.436;2023-05-10T07:36:33;2.22;;;1.30;;
40729;SDS011;26418;50.070;8.436;2023-05-10T07:38:59;6.10;;;1.70;;
40729;SDS011;26418;50.070;8.436;2023-05-10T07:41:24;2.00;;;1.42;;
40729;SDS011;26418;50.070;8.436;2023-05-10T07:43:50;3.17;;;1.90;;
40729;SDS011;26418;50.070;8.436;2023-05-10T07:46:15;3.25;;;1.98;;
40729;SDS011;26418;50.070;8.436;2023-05-10T07:48:40;4.63;;;1.40;;
40729;SDS011;26418;50.070;8.436;2023-05-10T07:51:06;5.13;;;1.58;;
40729;SDS011;26418;50.070;8.436;2023-05-10T07:53:34;3.72;;;1.77;;
40729;SDS011;26418;50.070;8.436;2023-05-10T07:56:18;5.57;;;1.58;;
40729;SDS011;26418;50.070;8.436;2023-05-10T07:58:54;2.17;;;1.83;;
40729;SDS011;26418;50.070;8.436;2023-05-10T08:01:20;4.13;;;1.70;;
40729;SDS011;26418;50.070;8.436;2023-05-10T08:03:46;1.80;;;1.50;;
40729;SDS011;26418;50.070;8.436;2023-05-10T08:06:11;3.72;;;1.88;;
40729;SDS011;26418;50.070;8.436;2023-05-10T08:08:37;2.75;;;1.55;;
40729;SDS011;26418;50.070;8.436;2023-05-10T08:11:03;4.63;;;1.30;;
40729;SDS011;26418;50.070;8.436;2023-05-10T08:13:28;4.32;;;1.48;;
40729;SDS011;26418;50.070;8.436;2023-05-10T08:15:54;3.28;;;1.48;;
40729;SDS011;26418;50.070;8.436;2023-05-10T08:18:19;1.92;;;1.30;;
40729;SDS011;26418;50.070;8.436;2023-05-10T08:20:44;2.28;;;1.17;;
40729;SDS011;26418;50.070;8.436;2023-05-10T08:23:11;6.10;;;1.45;;
40729;SDS011;26418;50.070;8.436;2023-05-10T08:25:37;4.00;;;2.05;;
40729;SDS011;26418;50.070;8.436;2023-05-10T08:28:02;5.60;;;1.67;;
40729;SDS011;26418;50.070;8.436;2023-05-10T08:30:28;3.10;;;1.48;;
40729;SDS011;26418;50.070;8.436;2023-05-10T08:32:53;6.97;;;1.85;;
40729;SDS011;26418;50.070;8.436;2023-05-10T08:35:18;3.08;;;1.42;;
40729;SDS011;26418;50.070;8.436;2023-05-10T08:37:43;4.97;;;1.85;;
40729;SDS011;26418;50.070;8.436;2023-05-10T08:40:09;1.90;;;1.40;;
40729;SDS011;26418;50.070;8.436;2023-05-10T08:42:36;6.25;;;1.98;;
40729;SDS011;26418;50.070;8.436;2023-05-10T08:45:05;2.60;;;1.67;;
40729;SDS011;26418;50.070;8.436;2023-05-10T08:47:32;6.55;;;2.03;;
40729;SDS011;26418;50.070;8.436;2023-05-10T08:50:00;4.15;;;1.65;;
40729;SDS011;26418;50.070;8.436;2023-05-10T08:52:28;2.78;;;1.55;;
40729;SDS011;26418;50.070;8.436;2023-05-10T08:54:55;6.18;;;1.88;;
40729;SDS011;26418;50.070;8.436;2023-05-10T08:57:21;2.15;;;1.35;;
40729;SDS011;26418;50.070;8.436;2023-05-10T08:59:47;2.60;;;1.30;;
40729;SDS011;26418;50.070;8.436;2023-05-10T09:02:12;3.08;;;1.63;;
40729;SDS011;26418;50.070;8.436;2023-05-10T09:04:38;5.28;;;1.40;;
40729;SDS011;26418;50.070;8.436;2023-05-10T09:07:04;5.25;;;1.35;;
40729;SDS011;26418;50.070;8.436;2023-05-10T09:09:30;4.20;;;1.95;;
40729;SDS011;26418;50.070;8.436;2023-05-10T09:11:56;4.10;;;1.48;;
40729;SDS011;26418;50.070;8.436;2023-05-10T09:14:23;3.28;;;1.65;;
40729;SDS011;26418;50.070;8.436;2023-05-10T09:16:48;4.00;;;1.45;;
40729;SDS011;26418;50.070;8.436;2023-05-10T09:19:14;4.35;;;1.58;;
40729;SDS011;26418;50.070;8.436;2023-05-10T09:21:39;3.15;;;1.70;;
40729;SDS011;26418;50.070;8.436;2023-05-10T09:24:05;4.85;;;1.85;;
40729;SDS011;26418;50.070;8.436;2023-05-10T09:26:32;3.70;;;0.90;;
40729;SDS011;26418;50.070;8.436;2023-05-10T09:28:58;6.25;;;1.50;;
40729;SDS011;26418;50.070;8.436;2023-05-10T09:31:24;6.45;;;1.50;;
40729;SDS011;26418;50.070;8.436;2023-05-10T09:34:08;3.20;;;1.50;;
40729;SDS011;26418;50.070;8.436;2023-05-10T09:36:34;3.03;;;1.50;;
40729;SDS011;26418;50.070;8.436;2023-05-10T09:38:59;1.88;;;1.00;;
40729;SDS011;26418;50.070;8.436;2023-05-10T09:41:24;6.20;;;1.70;;
40729;SDS011;26418;50.070;8.436;2023-05-10T09:43:50;8.40;;;2.22;;
40729;SDS011;26418;50.070;8.436;2023-05-10T09:46:21;6.55;;;2.83;;
40729;SDS011;26418;50.070;8.436;2023-05-10T09:48:47;7.15;;;3.20;;
40729;SDS011;26418;50.070;8.436;2023-05-10T09:51:25;5.25;;;3.25;;
40729;SDS011;26418;50.070;8.436;2023-05-10T09:56:38;5.65;;;2.10;;
40729;SDS011;26418;50.070;8.436;2023-05-10T09:59:05;2.15;;;1.27;;
40729;SDS011;26418;50.070;8.436;2023-05-10T10:01:33;3.83;;;1.88;;
40729;SDS011;26418;50.070;8.436;2023-05-10T10:03:59;1.17;;;0.80;;
40729;SDS011;26418;50.070;8.436;2023-05-10T10:06:27;0.95;;;0.60;;
40729;SDS011;26418;50.070;8.436;2023-05-10T10:08:53;3.75;;;0.80;;
40729;SDS011;26418;50.070;8.436;2023-05-10T10:11:19;2.28;;;0.52;;
40729;SDS011;26418;50.070;8.436;2023-05-10T10:13:45;1.75;;;0.60;;
40729;SDS011;26418;50.070;8.436;2023-05-10T10:16:10;2.40;;;0.52;;
40729;SDS011;26418;50.070;8.436;2023-05-10T10:18:36;2.47;;;0.70;;
40729;SDS011;26418;50.070;8.436;2023-05-10T10:21:07;1.83;;;0.52;;
40729;SDS011;26418;50.070;8.436;2023-05-10T10:23:35;2.03;;;0.50;;
40729;SDS011;26418;50.070;8.436;2023-05-10T10:26:02;3.90;;;1.33;;
40729;SDS011;26418;50.070;8.436;2023-05-10T10:31:32;1.45;;;0.93;;
40729;SDS011;26418;50.070;8.436;2023-05-10T10:34:08;5.60;;;1.05;;
40729;SDS011;26418;50.070;8.436;2023-05-10T10:36:44;2.50;;;0.60;;
40729;SDS011;26418;50.070;8.436;2023-05-10T10:39:10;3.90;;;1.05;;
40729;SDS011;26418;50.070;8.436;2023-05-10T10:41:38;1.83;;;0.80;;
40729;SDS011;26418;50.070;8.436;2023-05-10T10:47:21;2.15;;;0.68;;
40729;SDS011;26418;50.070;8.436;2023-05-10T10:54:58;2.85;;;0.50;;
40729;SDS011;26418;50.070;8.436;2023-05-10T11:02:44;3.58;;;0.52;;
40729;SDS011;26418;50.070;8.436;2023-05-10T11:05:26;0.50;;;0.50;;
40729;SDS011;26418;50.070;8.436;2023-05-10T11:08:06;2.35;;;0.30;;
40729;SDS011;26418;50.070;8.436;2023-05-10T11:21:30;1.20;;;0.40;;
40729;SDS011;26418;50.070;8.436;2023-05-10T11:23:56;1.30;;;0.40;;
40729;SDS011;26418;50.070;8.436;2023-05-10T11:26:35;1.10;;;0.50;;
40729;SDS011;26418;50.070;8.436;2023-05-10T11:29:01;0.50;;;0.43;;
40729;SDS011;26418;50.070;8.436;2023-05-10T11:31:29;1.33;;;0.55;;
40729;SDS011;26418;50.070;8.436;2023-05-10T11:33:55;1.05;;;0.47;;
40729;SDS011;26418;50.070;8.436;2023-05-10T11:36:29;1.17;;;0.47;;
40729;SDS011;26418;50.070;8.436;2023-05-10T11:38:57;0.40;;;0.40;;
40729;SDS011;26418;50.070;8.436;2023-05-10T11:41:23;3.55;;;0.70;;
40729;SDS011;26418;50.070;8.436;2023-05-10T11:43:50;0.80;;;0.50;;
40729;SDS011;26418;50.070;8.436;2023-05-10T11:46:17;0.40;;;0.40;;
40729;SDS011;26418;50.070;8.436;2023-05-10T11:48:45;0.90;;;0.70;;
40729;SDS011;26418;50.070;8.436;2023-05-10T11:51:14;7.43;;;1.10;;
40729;SDS011;26418;50.070;8.436;2023-05-10T11:53:40;0.85;;;0.50;;
40729;SDS011;26418;50.070;8.436;2023-05-10T11:56:06;1.10;;;0.50;;
40729;SDS011;26418;50.070;8.436;2023-05-10T11:58:33;1.67;;;0.52;;
40729;SDS011;26418;50.070;8.436;2023-05-10T12:01:00;0.73;;;0.60;;
40729;SDS011;26418;50.070;8.436;2023-05-10T12:03:26;0.75;;;0.40;;
40729;SDS011;26418;50.070;8.436;2023-05-10T12:05:53;0.60;;;0.60;;
40729;SDS011;26418;50.070;8.436;2023-05-10T12:08:20;0.50;;;0.30;;
40729;SDS011;26418;50.070;8.436;2023-05-10T12:10:49;1.48;;;0.68;;
40729;SDS011;26418;50.070;8.436;2023-05-10T12:13:15;0.47;;;0.47;;
40729;SDS011;26418;50.070;8.436;2023-05-10T12:15:42;1.55;;;0.60;;
40729;SDS011;26418;50.070;8.436;2023-05-10T12:18:08;2.83;;;0.52;;
40729;SDS011;26418;50.070;8.436;2023-05-10T12:20:35;1.55;;;0.65;;
40729;SDS011;26418;50.070;8.436;2023-05-10T12:23:01;1.83;;;0.65;;
40729;SDS011;26418;50.070;8.436;2023-05-10T12:25:32;0.30;;;0.30;;
40729;SDS011;26418;50.070;8.436;2023-05-10T12:27:59;0.52;;;0.38;;
40729;SDS011;26418;50.070;8.436;2023-05-10T12:30:28;0.70;;;0.40;;
40729;SDS011;26418;50.070;8.436;2023-05-10T12:32:59;1.60;;;0.57;;
40729;SDS011;26418;50.070;8.436;2023-05-10T12:35:33;1.30;;;0.80;;
40729;SDS011;26418;50.070;8.436;2023-05-10T12:38:24;1.27;;;0.30;;
40729;SDS011;26418;50.070;8.436;2023-05-10T12:41:11;0.93;;;0.73;;
40729;SDS011;26418;50.070;8.436;2023-05-10T12:43:38;1.98;;;0.52;;
40729;SDS011;26418;50.070;8.436;2023-05-10T12:46:04;0.63;;;0.50;;
40729;SDS011;26418;50.070;8.436;2023-05-10T12:48:34;1.00;;;0.47;;
40729;SDS011;26418;50.070;8.436;2023-05-10T12:51:01;1.45;;;0.60;;
40729;SDS011;26418;50.070;8.436;2023-05-10T12:53:26;2.70;;;0.55;;
40729;SDS011;26418;50.070;8.436;2023-05-10T12:55:52;0.55;;;0.40;;
40729;SDS011;26418;50.070;8.436;2023-05-10T12:58:18;0.55;;;0.43;;
40729;SDS011;26418;50.070;8.436;2023-05-10T13:00:43;0.95;;;0.50;;
40729;SDS011;26418;50.070;8.436;2023-05-10T13:03:09;1.42;;;0.60;;
40729;SDS011;26418;50.070;8.436;2023-05-10T13:05:35;2.78;;;0.85;;
40729;SDS011;26418;50.070;8.436;2023-05-10T13:08:00;4.53;;;0.55;;
40729;SDS011;26418;50.070;8.436;2023-05-10T13:10:27;1.05;;;0.50;;
40729;SDS011;26418;50.070;8.436;2023-05-10T13:12:56;1.45;;;0.43;;
40729;SDS011;26418;50.070;8.436;2023-05-10T13:15:23;2.17;;;0.30;;
40729;SDS011;26418;50.070;8.436;2023-05-10T13:17:48;0.30;;;0.20;;
40729;SDS011;26418;50.070;8.436;2023-05-10T13:20:14;1.45;;;0.30;;
40729;SDS011;26418;50.070;8.436;2023-05-10T13:22:39;1.50;;;0.50;;
40729;SDS011;26418;50.070;8.436;2023-05-10T13:25:05;2.83;;;0.45;;
40729;SDS011;26418;50.070;8.436;2023-05-10T13:27:31;1.35;;;0.30;;
40729;SDS011;26418;50.070;8.436;2023-05-10T13:29:56;1.70;;;0.57;;
40729;SDS011;26418;50.070;8.436;2023-05-10T13:32:24;1.33;;;0.55;;
40729;SDS011;26418;50.070;8.436;2023-05-10T13:34:50;0.55;;;0.45;;
40729;SDS011;26418;50.070;8.436;2023-05-10T13:37:16;0.40;;;0.30;;
40729;SDS011;26418;50.070;8.436;2023-05-10T13:39:41;2.15;;;0.60;;
40729;SDS011;26418;50.070;8.436;2023-05-10T13:42:06;2.47;;;0.93;;
40729;SDS011;26418;50.070;8.436;2023-05-10T13:44:32;1.70;;;0.60;;
40729;SDS011;26418;50.070;8.436;2023-05-10T13:46:58;1.73;;;0.60;;
40729;SDS011;26418;50.070;8.436;2023-05-10T13:49:24;2.85;;;0.70;;
40729;SDS011;26418;50.070;8.436;2023-05-10T13:51:49;1.10;;;0.43;;
40729;SDS011;26418;50.070;8.436;2023-05-10T13:54:14;1.15;;;0.45;;
40729;SDS011;26418;50.070;8.436;2023-05-10T13:56:41;4.68;;;0.40;;
40729;SDS011;26418;50.070;8.436;2023-05-10T13:59:07;2.47;;;1.08;;
40729;SDS011;26418;50.070;8.436;2023-05-10T14:01:32;1.13;;;0.43;;
40729;SDS011;26418;50.070;8.436;2023-05-10T14:03:58;3.25;;;0.50;;
40729;SDS011;26418;50.070;8.436;2023-05-10T14:06:23;2.13;;;0.70;;
40729;SDS011;26418;50.070;8.436;2023-05-10T14:08:48;1.23;;;0.65;;
40729;SDS011;26418;50.070;8.436;2023-05-10T14:11:14;2.80;;;0.80;;
40729;SDS011;26418;50.070;8.436;2023-05-10T14:13:39;3.78;;;0.50;;
40729;SDS011;26418;50.070;8.436;2023-05-10T14:16:04;1.15;;;0.47;;
40729;SDS011;26418;50.070;8.436;2023-05-10T14:18:30;1.10;;;0.55;;
40729;SDS011;26418;50.070;8.436;2023-05-10T14:20:56;2.08;;;0.55;;
40729;SDS011;26418;50.070;8.436;2023-05-10T14:23:21;5.75;;;1.63;;
40729;SDS011;26418;50.070;8.436;2023-05-10T14:25:49;0.73;;;0.40;;
40729;SDS011;26418;50.070;8.436;2023-05-10T14:28:15;0.98;;;0.40;;
40729;SDS011;26418;50.070;8.436;2023-05-10T14:30:42;1.33;;;0.45;;
40729;SDS011;26418;50.070;8.436;2023-05-10T14:33:08;3.22;;;0.60;;
40729;SDS011;26418;50.070;8.436;2023-05-10T14:35:33;1.25;;;0.43;;
40729;SDS011;26418;50.070;8.436;2023-05-10T14:37:59;5.10;;;0.50;;
40729;SDS011;26418;50.070;8.436;2023-05-10T14:40:24;1.40;;;0.47;;
40729;SDS011;26418;50.070;8.436;2023-05-10T14:42:50;1.52;;;0.40;;
40729;SDS011;26418;50.070;8.436;2023-05-10T14:45:15;3.63;;;1.15;;
40729;SDS011;26418;50.070;8.436;2023-05-10T14:47:41;2.53;;;0.60;;
40729;SDS011;26418;50.070;8.436;2023-05-10T14:50:06;1.15;;;0.45;;
40729;SDS011;26418;50.070;8.436;2023-05-10T14:52:32;1.45;;;0.90;;
40729;SDS011;26418;50.070;8.436;2023-05-10T14:54:57;1.52;;;0.68;;
40729;SDS011;26418;50.070;8.436;2023-05-10T14:57:24;1.48;;;0.70;;
40729;SDS011;26418;50.070;8.436;2023-05-10T14:59:49;0.55;;;0.40;;
40729;SDS011;26418;50.070;8.436;2023-05-10T15:02:14;1.73;;;0.70;;
40729;SDS011;26418;50.070;8.436;2023-05-10T15:04:40;2.45;;;0.57;;
40729;SDS011;26418;50.070;8.436;2023-05-10T15:07:05;0.68;;;0.50;;
40729;SDS011;26418;50.070;8.436;2023-05-10T15:09:30;1.52;;;0.70;;
40729;SDS011;26418;50.070;8.436;2023-05-10T15:11:56;1.00;;;0.65;;
40729;SDS011;26418;50.070;8.436;2023-05-10T15:14:21;1.13;;;0.40;;
40729;SDS011;26418;50.070;8.436;2023-05-10T15:16:47;1.08;;;0.40;;
40729;SDS011;26418;50.070;8.436;2023-05-10T15:19:12;1.50;;;0.60;;
40729;SDS011;26418;50.070;8.436;2023-05-10T15:21:38;0.93;;;0.55;;
40729;SDS011;26418;50.070;8.436;2023-05-10T15:24:06;5.15;;;0.52;;
40729;SDS011;26418;50.070;8.436;2023-05-10T15:26:32;1.60;;;0.68;;
40729;SDS011;26418;50.070;8.436;2023-05-10T15:28:58;1.27;;;0.75;;
40729;SDS011;26418;50.070;8.436;2023-05-10T15:31:23;1.77;;;0.40;;
40729;SDS011;26418;50.070;8.436;2023-05-10T15:33:49;2.97;;;1.05;;
40729;SDS011;26418;50.070;8.436;2023-05-10T15:36:14;2.45;;;0.77;;